sensor_id;sensor_type;location;lat;lon;timestamp;P1;durP1;ratioP1;P2;durP2;ratioP2
68315;SDS011;55508;54.368;18.406;2022-07-12T00:02:23;6.40;;;3.05;;
68315;SDS011;55508;54.368;18.406;2022-07-12T00:04:50;3.65;;;2.72;;
68315;SDS011;55508;54.368;18.406;2022-07-12T00:07:19;3.08;;;2.80;;
68315;SDS011;55508;54.368;18.406;2022-07-12T00:09:46;3.30;;;3.03;;
68315;SDS011;55508;54.368;18.406;2022-07-12T00:12:12;4.50;;;3.13;;
68315;SDS011;55508;54.368;18.406;2022-07-12T00:14:40;3.72;;;3.10;;
68315;SDS011;55508;54.368;18.406;2022-07-12T00:17:07;3.70;;;3.17;;
68315;SDS011;55508;54.368;18.406;2022-07-12T00:19:34;4.03;;;3.60;;
68315;SDS011;55508;54.368;18.406;2022-07-12T00:22:01;3.90;;;3.60;;
68315;SDS011;55508;54.368;18.406;2022-07-12T00:24:28;4.18;;;3.70;;
68315;SDS011;55508;54.368;18.406;2022-07-12T00:26:55;3.75;;;3.55;;
68315;SDS011;55508;54.368;18.406;2022-07-12T00:29:22;5.72;;;3.83;;
68315;SDS011;55508;54.368;18.406;2022-07-12T00:31:49;5.07;;;4.13;;
68315;SDS011;55508;54.368;18.406;2022-07-12T00:34:16;4.40;;;4.10;;
68315;SDS011;55508;54.368;18.406;2022-07-12T00:36:43;4.35;;;4.05;;
68315;SDS011;55508;54.368;18.406;2022-07-12T00:39:10;4.55;;;4.32;;
68315;SDS011;55508;54.368;18.406;2022-07-12T00:41:37;5.30;;;4.93;;
68315;SDS011;55508;54.368;18.406;2022-07-12T00:44:04;4.75;;;4.45;;
68315;SDS011;55508;54.368;18.406;2022-07-12T00:46:31;5.47;;;4.55;;
68315;SDS011;55508;54.368;18.406;2022-07-12T00:48:58;5.22;;;4.75;;
68315;SDS011;55508;54.368;18.406;2022-07-12T00:51:25;4.63;;;4.32;;
68315;SDS011;55508;54.368;18.406;2022-07-12T00:53:52;5.00;;;4.60;;
68315;SDS011;55508;54.368;18.406;2022-07-12T00:56:20;5.60;;;5.10;;
68315;SDS011;55508;54.368;18.406;2022-07-12T00:58:48;4.65;;;4.35;;
68315;SDS011;55508;54.368;18.406;2022-07-12T01:01:15;4.82;;;4.47;;
68315;SDS011;55508;54.368;18.406;2022-07-12T01:03:42;4.70;;;4.30;;
68315;SDS011;55508;54.368;18.406;2022-07-12T01:06:09;4.78;;;4.38;;
68315;SDS011;55508;54.368;18.406;2022-07-12T01:08:36;5.38;;;4.97;;
68315;SDS011;55508;54.368;18.406;2022-07-12T01:11:04;4.82;;;4.53;;
68315;SDS011;55508;54.368;18.406;2022-07-12T01:13:31;4.95;;;4.65;;
68315;SDS011;55508;54.368;18.406;2022-07-12T01:15:58;5.68;;;5.15;;
68315;SDS011;55508;54.368;18.406;2022-07-12T01:18:26;5.85;;;5.28;;
68315;SDS011;55508;54.368;18.406;2022-07-12T01:20:54;7.72;;;5.57;;
68315;SDS011;55508;54.368;18.406;2022-07-12T01:23:24;6.22;;;5.57;;
68315;SDS011;55508;54.368;18.406;2022-07-12T01:25:51;6.15;;;5.65;;
68315;SDS011;55508;54.368;18.406;2022-07-12T01:28:18;7.18;;;6.57;;
68315;SDS011;55508;54.368;18.406;2022-07-12T01:30:46;8.70;;;6.78;;
68315;SDS011;55508;54.368;18.406;2022-07-12T01:33:15;7.47;;;6.82;;
68315;SDS011;55508;54.368;18.406;2022-07-12T01:35:42;7.70;;;7.00;;
68315;SDS011;55508;54.368;18.406;2022-07-12T01:38:09;7.65;;;7.05;;
68315;SDS011;55508;54.368;18.406;2022-07-12T01:40:36;7.85;;;7.05;;
68315;SDS011;55508;54.368;18.406;2022-07-12T01:43:04;9.13;;;6.72;;
68315;SDS011;55508;54.368;18.406;2022-07-12T01:45:32;8.10;;;7.13;;
68315;SDS011;55508;54.368;18.406;2022-07-12T01:47:59;8.68;;;7.88;;
68315;SDS011;55508;54.368;18.406;2022-07-12T01:50:26;8.38;;;7.53;;
68315;SDS011;55508;54.368;18.406;2022-07-12T01:52:53;9.50;;;7.78;;
68315;SDS011;55508;54.368;18.406;2022-07-12T01:55:21;8.15;;;7.45;;
68315;SDS011;55508;54.368;18.406;2022-07-12T01:57:49;7.90;;;7.25;;
68315;SDS011;55508;54.368;18.406;2022-07-12T02:00:17;7.90;;;7.10;;
68315;SDS011;55508;54.368;18.406;2022-07-12T02:02:46;8.43;;;7.57;;
68315;SDS011;55508;54.368;18.406;2022-07-12T02:05:14;8.40;;;7.57;;
68315;SDS011;55508;54.368;18.406;2022-07-12T02:07:41;8.15;;;7.50;;
68315;SDS011;55508;54.368;18.406;2022-07-12T02:10:08;8.07;;;7.20;;
68315;SDS011;55508;54.368;18.406;2022-07-12T02:12:36;8.88;;;7.90;;
68315;SDS011;55508;54.368;18.406;2022-07-12T02:15:06;8.93;;;8.23;;
68315;SDS011;55508;54.368;18.406;2022-07-12T02:17:34;8.75;;;7.97;;
68315;SDS011;55508;54.368;18.406;2022-07-12T02:20:01;8.68;;;7.88;;
68315;SDS011;55508;54.368;18.406;2022-07-12T02:22:28;8.40;;;7.70;;
68315;SDS011;55508;54.368;18.406;2022-07-12T02:24:55;8.95;;;8.25;;
68315;SDS011;55508;54.368;18.406;2022-07-12T02:27:22;9.48;;;7.97;;
68315;SDS011;55508;54.368;18.406;2022-07-12T02:29:49;9.93;;;8.32;;
68315;SDS011;55508;54.368;18.406;2022-07-12T02:32:16;8.93;;;8.32;;
68315;SDS011;55508;54.368;18.406;2022-07-12T02:34:43;9.10;;;8.35;;
68315;SDS011;55508;54.368;18.406;2022-07-12T02:37:10;9.15;;;8.27;;
68315;SDS011;55508;54.368;18.406;2022-07-12T02:39:37;7.97;;;7.38;;
68315;SDS011;55508;54.368;18.406;2022-07-12T02:42:04;9.13;;;8.38;;
68315;SDS011;55508;54.368;18.406;2022-07-12T02:44:31;9.07;;;8.38;;
68315;SDS011;55508;54.368;18.406;2022-07-12T02:46:59;9.05;;;8.35;;
68315;SDS011;55508;54.368;18.406;2022-07-12T02:49:27;8.77;;;8.13;;
68315;SDS011;55508;54.368;18.406;2022-07-12T02:51:54;8.95;;;8.25;;
68315;SDS011;55508;54.368;18.406;2022-07-12T02:54:21;8.50;;;7.90;;
68315;SDS011;55508;54.368;18.406;2022-07-12T02:56:48;11.95;;;8.30;;
68315;SDS011;55508;54.368;18.406;2022-07-12T02:59:15;11.85;;;8.18;;
68315;SDS011;55508;54.368;18.406;2022-07-12T03:01:42;10.43;;;7.10;;
68315;SDS011;55508;54.368;18.406;2022-07-12T03:04:09;6.82;;;6.07;;
68315;SDS011;55508;54.368;18.406;2022-07-12T03:06:36;5.82;;;5.38;;
68315;SDS011;55508;54.368;18.406;2022-07-12T03:09:03;4.88;;;4.47;;
68315;SDS011;55508;54.368;18.406;2022-07-12T03:11:30;3.67;;;3.47;;
68315;SDS011;55508;54.368;18.406;2022-07-12T03:13:57;2.80;;;2.70;;
68315;SDS011;55508;54.368;18.406;2022-07-12T03:16:24;3.05;;;2.83;;
68315;SDS011;55508;54.368;18.406;2022-07-12T03:18:51;2.80;;;2.15;;
68315;SDS011;55508;54.368;18.406;2022-07-12T03:21:18;4.15;;;2.20;;
68315;SDS011;55508;54.368;18.406;2022-07-12T03:23:45;6.55;;;2.35;;
68315;SDS011;55508;54.368;18.406;2022-07-12T03:26:12;5.35;;;2.00;;
68315;SDS011;55508;54.368;18.406;2022-07-12T03:28:39;2.00;;;1.85;;
68315;SDS011;55508;54.368;18.406;2022-07-12T03:31:06;2.92;;;1.80;;
68315;SDS011;55508;54.368;18.406;2022-07-12T03:33:33;1.65;;;1.45;;
68315;SDS011;55508;54.368;18.406;2022-07-12T03:36:00;2.03;;;1.75;;
68315;SDS011;55508;54.368;18.406;2022-07-12T03:38:27;1.30;;;1.20;;
68315;SDS011;55508;54.368;18.406;2022-07-12T03:40:54;3.63;;;1.48;;
68315;SDS011;55508;54.368;18.406;2022-07-12T03:43:21;2.97;;;1.25;;
68315;SDS011;55508;54.368;18.406;2022-07-12T03:45:48;1.60;;;1.50;;
68315;SDS011;55508;54.368;18.406;2022-07-12T03:48:15;3.17;;;1.20;;
68315;SDS011;55508;54.368;18.406;2022-07-12T03:50:43;1.88;;;0.90;;
68315;SDS011;55508;54.368;18.406;2022-07-12T03:53:12;3.72;;;1.00;;
68315;SDS011;55508;54.368;18.406;2022-07-12T03:55:39;1.42;;;1.10;;
68315;SDS011;55508;54.368;18.406;2022-07-12T03:58:06;1.25;;;0.90;;
68315;SDS011;55508;54.368;18.406;2022-07-12T04:00:33;3.42;;;1.27;;
68315;SDS011;55508;54.368;18.406;2022-07-12T04:03:00;1.88;;;1.00;;
68315;SDS011;55508;54.368;18.406;2022-07-12T04:05:27;1.65;;;0.80;;
68315;SDS011;55508;54.368;18.406;2022-07-12T04:07:54;2.70;;;0.90;;
68315;SDS011;55508;54.368;18.406;2022-07-12T04:10:21;0.88;;;0.70;;
68315;SDS011;55508;54.368;18.406;2022-07-12T04:12:49;1.67;;;0.70;;
68315;SDS011;55508;54.368;18.406;2022-07-12T04:15:17;0.85;;;0.70;;
68315;SDS011;55508;54.368;18.406;2022-07-12T04:17:44;1.58;;;0.70;;
68315;SDS011;55508;54.368;18.406;2022-07-12T04:20:11;2.47;;;0.50;;
68315;SDS011;55508;54.368;18.406;2022-07-12T04:22:38;1.08;;;0.50;;
68315;SDS011;55508;54.368;18.406;2022-07-12T04:25:06;2.15;;;0.68;;
68315;SDS011;55508;54.368;18.406;2022-07-12T04:27:34;0.90;;;0.60;;
68315;SDS011;55508;54.368;18.406;2022-07-12T04:30:01;1.15;;;0.57;;
68315;SDS011;55508;54.368;18.406;2022-07-12T04:32:29;0.82;;;0.70;;
68315;SDS011;55508;54.368;18.406;2022-07-12T04:34:57;0.85;;;0.60;;
68315;SDS011;55508;54.368;18.406;2022-07-12T04:37:24;2.83;;;0.70;;
68315;SDS011;55508;54.368;18.406;2022-07-12T04:39:51;2.45;;;0.98;;
68315;SDS011;55508;54.368;18.406;2022-07-12T04:42:18;0.52;;;0.52;;
68315;SDS011;55508;54.368;18.406;2022-07-12T04:44:45;1.83;;;0.60;;
68315;SDS011;55508;54.368;18.406;2022-07-12T04:47:12;0.82;;;0.60;;
68315;SDS011;55508;54.368;18.406;2022-07-12T04:49:39;2.50;;;0.57;;
68315;SDS011;55508;54.368;18.406;2022-07-12T04:52:06;0.85;;;0.50;;
68315;SDS011;55508;54.368;18.406;2022-07-12T04:54:33;0.85;;;0.50;;
68315;SDS011;55508;54.368;18.406;2022-07-12T04:57:00;2.45;;;0.75;;
68315;SDS011;55508;54.368;18.406;2022-07-12T04:59:27;1.10;;;0.50;;
68315;SDS011;55508;54.368;18.406;2022-07-12T05:01:54;1.80;;;0.57;;
68315;SDS011;55508;54.368;18.406;2022-07-12T05:04:21;1.27;;;0.50;;
68315;SDS011;55508;54.368;18.406;2022-07-12T05:06:48;0.98;;;0.50;;
68315;SDS011;55508;54.368;18.406;2022-07-12T05:09:16;2.65;;;0.60;;
68315;SDS011;55508;54.368;18.406;2022-07-12T05:11:44;1.08;;;0.50;;
68315;SDS011;55508;54.368;18.406;2022-07-12T05:14:11;1.60;;;0.40;;
68315;SDS011;55508;54.368;18.406;2022-07-12T05:16:38;0.57;;;0.43;;
68315;SDS011;55508;54.368;18.406;2022-07-12T05:19:05;1.08;;;0.50;;
68315;SDS011;55508;54.368;18.406;2022-07-12T05:21:32;2.92;;;0.50;;
68315;SDS011;55508;54.368;18.406;2022-07-12T05:24:02;3.08;;;0.57;;
68315;SDS011;55508;54.368;18.406;2022-07-12T05:26:30;2.65;;;0.50;;
68315;SDS011;55508;54.368;18.406;2022-07-12T05:28:57;0.88;;;0.47;;
68315;SDS011;55508;54.368;18.406;2022-07-12T05:31:24;1.63;;;0.40;;
68315;SDS011;55508;54.368;18.406;2022-07-12T05:33:52;0.75;;;0.45;;
68315;SDS011;55508;54.368;18.406;2022-07-12T05:36:19;1.73;;;0.43;;
68315;SDS011;55508;54.368;18.406;2022-07-12T05:38:46;1.50;;;0.45;;
68315;SDS011;55508;54.368;18.406;2022-07-12T05:41:13;2.05;;;0.65;;
68315;SDS011;55508;54.368;18.406;2022-07-12T05:43:40;0.30;;;0.30;;
68315;SDS011;55508;54.368;18.406;2022-07-12T05:46:07;3.03;;;0.40;;
68315;SDS011;55508;54.368;18.406;2022-07-12T05:48:36;1.75;;;0.40;;
68315;SDS011;55508;54.368;18.406;2022-07-12T05:51:04;1.63;;;0.50;;
68315;SDS011;55508;54.368;18.406;2022-07-12T05:53:49;1.33;;;0.50;;
68315;SDS011;55508;54.368;18.406;2022-07-12T05:56:17;0.85;;;0.40;;
68315;SDS011;55508;54.368;18.406;2022-07-12T05:58:44;1.58;;;0.40;;
68315;SDS011;55508;54.368;18.406;2022-07-12T06:01:11;0.50;;;0.30;;
68315;SDS011;55508;54.368;18.406;2022-07-12T06:03:38;3.13;;;0.43;;
68315;SDS011;55508;54.368;18.406;2022-07-12T06:06:05;2.08;;;0.43;;
68315;SDS011;55508;54.368;18.406;2022-07-12T06:08:32;1.58;;;0.43;;
68315;SDS011;55508;54.368;18.406;2022-07-12T06:10:59;1.67;;;0.40;;
68315;SDS011;55508;54.368;18.406;2022-07-12T06:13:26;1.70;;;0.38;;
68315;SDS011;55508;54.368;18.406;2022-07-12T06:15:53;1.73;;;0.35;;
68315;SDS011;55508;54.368;18.406;2022-07-12T06:18:20;0.90;;;0.35;;
68315;SDS011;55508;54.368;18.406;2022-07-12T06:20:47;1.83;;;0.45;;
68315;SDS011;55508;54.368;18.406;2022-07-12T06:23:14;0.80;;;0.50;;
68315;SDS011;55508;54.368;18.406;2022-07-12T06:25:41;0.40;;;0.30;;
68315;SDS011;55508;54.368;18.406;2022-07-12T06:28:10;0.55;;;0.50;;
68315;SDS011;55508;54.368;18.406;2022-07-12T06:30:38;0.88;;;0.40;;
68315;SDS011;55508;54.368;18.406;2022-07-12T06:33:06;1.08;;;0.40;;
68315;SDS011;55508;54.368;18.406;2022-07-12T06:35:33;1.90;;;0.30;;
68315;SDS011;55508;54.368;18.406;2022-07-12T06:38:01;1.75;;;0.50;;
68315;SDS011;55508;54.368;18.406;2022-07-12T06:40:28;2.70;;;0.40;;
68315;SDS011;55508;54.368;18.406;2022-07-12T06:42:56;0.45;;;0.32;;
68315;SDS011;55508;54.368;18.406;2022-07-12T06:45:23;0.95;;;0.30;;
68315;SDS011;55508;54.368;18.406;2022-07-12T06:47:51;1.48;;;0.38;;
68315;SDS011;55508;54.368;18.406;2022-07-12T06:50:19;1.85;;;0.50;;
68315;SDS011;55508;54.368;18.406;2022-07-12T06:52:46;1.88;;;0.50;;
68315;SDS011;55508;54.368;18.406;2022-07-12T06:55:13;2.13;;;0.57;;
68315;SDS011;55508;54.368;18.406;2022-07-12T06:57:41;1.30;;;0.40;;
68315;SDS011;55508;54.368;18.406;2022-07-12T07:00:08;0.95;;;0.30;;
68315;SDS011;55508;54.368;18.406;2022-07-12T07:02:37;0.50;;;0.30;;
68315;SDS011;55508;54.368;18.406;2022-07-12T07:05:06;1.55;;;0.20;;
68315;SDS011;55508;54.368;18.406;2022-07-12T07:07:33;0.65;;;0.30;;
68315;SDS011;55508;54.368;18.406;2022-07-12T07:10:00;0.80;;;0.32;;
68315;SDS011;55508;54.368;18.406;2022-07-12T07:12:28;0.77;;;0.30;;
68315;SDS011;55508;54.368;18.406;2022-07-12T07:14:55;0.93;;;0.40;;
68315;SDS011;55508;54.368;18.406;2022-07-12T07:17:22;3.45;;;0.30;;
68315;SDS011;55508;54.368;18.406;2022-07-12T07:19:49;0.68;;;0.25;;
68315;SDS011;55508;54.368;18.406;2022-07-12T07:22:16;2.92;;;0.20;;
68315;SDS011;55508;54.368;18.406;2022-07-12T07:24:43;0.90;;;0.20;;
68315;SDS011;55508;54.368;18.406;2022-07-12T07:27:10;1.05;;;0.40;;
68315;SDS011;55508;54.368;18.406;2022-07-12T07:29:37;2.38;;;0.10;;
68315;SDS011;55508;54.368;18.406;2022-07-12T07:32:23;0.40;;;0.25;;
68315;SDS011;55508;54.368;18.406;2022-07-12T07:34:50;0.90;;;0.20;;
68315;SDS011;55508;54.368;18.406;2022-07-12T07:37:17;1.63;;;0.40;;
68315;SDS011;55508;54.368;18.406;2022-07-12T07:39:44;0.35;;;0.30;;
68315;SDS011;55508;54.368;18.406;2022-07-12T07:42:11;1.40;;;0.30;;
68315;SDS011;55508;54.368;18.406;2022-07-12T07:44:38;1.95;;;0.30;;
68315;SDS011;55508;54.368;18.406;2022-07-12T07:47:25;0.52;;;0.20;;
68315;SDS011;55508;54.368;18.406;2022-07-12T07:49:55;0.60;;;0.30;;
68315;SDS011;55508;54.368;18.406;2022-07-12T07:52:22;0.30;;;0.20;;
68315;SDS011;55508;54.368;18.406;2022-07-12T07:54:49;0.22;;;0.20;;
68315;SDS011;55508;54.368;18.406;2022-07-12T07:57:16;0.30;;;0.20;;
68315;SDS011;55508;54.368;18.406;2022-07-12T07:59:44;0.43;;;0.20;;
68315;SDS011;55508;54.368;18.406;2022-07-12T08:02:11;0.20;;;0.20;;
68315;SDS011;55508;54.368;18.406;2022-07-12T08:04:39;0.57;;;0.17;;
68315;SDS011;55508;54.368;18.406;2022-07-12T08:07:06;2.35;;;0.20;;
68315;SDS011;55508;54.368;18.406;2022-07-12T08:09:34;3.53;;;0.35;;
68315;SDS011;55508;54.368;18.406;2022-07-12T08:12:01;0.95;;;0.30;;
68315;SDS011;55508;54.368;18.406;2022-07-12T08:14:28;0.35;;;0.20;;
68315;SDS011;55508;54.368;18.406;2022-07-12T08:16:56;1.73;;;0.30;;
68315;SDS011;55508;54.368;18.406;2022-07-12T08:19:23;0.63;;;0.20;;
68315;SDS011;55508;54.368;18.406;2022-07-12T08:21:50;2.00;;;0.35;;
68315;SDS011;55508;54.368;18.406;2022-07-12T08:24:17;0.25;;;0.20;;
68315;SDS011;55508;54.368;18.406;2022-07-12T08:26:44;0.85;;;0.20;;
68315;SDS011;55508;54.368;18.406;2022-07-12T08:29:11;0.10;;;0.10;;
68315;SDS011;55508;54.368;18.406;2022-07-12T08:31:38;1.45;;;0.20;;
68315;SDS011;55508;54.368;18.406;2022-07-12T08:34:05;1.50;;;0.20;;
68315;SDS011;55508;54.368;18.406;2022-07-12T08:36:32;3.67;;;0.20;;
68315;SDS011;55508;54.368;18.406;2022-07-12T08:38:59;0.75;;;0.25;;
68315;SDS011;55508;54.368;18.406;2022-07-12T08:41:26;0.47;;;0.20;;
68315;SDS011;55508;54.368;18.406;2022-07-12T08:43:54;0.60;;;0.28;;
68315;SDS011;55508;54.368;18.406;2022-07-12T08:46:21;0.65;;;0.28;;
68315;SDS011;55508;54.368;18.406;2022-07-12T08:48:48;0.32;;;0.20;;
68315;SDS011;55508;54.368;18.406;2022-07-12T08:51:19;0.47;;;0.20;;
68315;SDS011;55508;54.368;18.406;2022-07-12T08:53:46;0.30;;;0.20;;
68315;SDS011;55508;54.368;18.406;2022-07-12T08:56:35;1.90;;;0.10;;
68315;SDS011;55508;54.368;18.406;2022-07-12T09:01:50;0.73;;;0.30;;
68315;SDS011;55508;54.368;18.406;2022-07-12T09:06:50;0.40;;;0.10;;
68315;SDS011;55508;54.368;18.406;2022-07-12T09:09:34;0.25;;;0.20;;
68315;SDS011;55508;54.368;18.406;2022-07-12T09:12:04;0.93;;;0.28;;
68315;SDS011;55508;54.368;18.406;2022-07-12T09:14:31;1.30;;;0.20;;
68315;SDS011;55508;54.368;18.406;2022-07-12T09:17:00;1.80;;;0.20;;
68315;SDS011;55508;54.368;18.406;2022-07-12T09:19:29;1.45;;;0.20;;
68315;SDS011;55508;54.368;18.406;2022-07-12T09:21:57;0.70;;;0.30;;
68315;SDS011;55508;54.368;18.406;2022-07-12T09:24:25;0.28;;;0.10;;
68315;SDS011;55508;54.368;18.406;2022-07-12T09:26:53;0.40;;;0.20;;
68315;SDS011;55508;54.368;18.406;2022-07-12T09:29:25;2.20;;;0.35;;
68315;SDS011;55508;54.368;18.406;2022-07-12T09:31:53;1.17;;;0.20;;
68315;SDS011;55508;54.368;18.406;2022-07-12T09:34:38;1.63;;;0.32;;
68315;SDS011;55508;54.368;18.406;2022-07-12T09:37:24;0.28;;;0.22;;
68315;SDS011;55508;54.368;18.406;2022-07-12T09:39:53;1.15;;;0.40;;
68315;SDS011;55508;54.368;18.406;2022-07-12T09:42:20;1.67;;;0.30;;
68315;SDS011;55508;54.368;18.406;2022-07-12T09:44:54;0.20;;;0.20;;
68315;SDS011;55508;54.368;18.406;2022-07-12T09:47:22;0.75;;;0.30;;
68315;SDS011;55508;54.368;18.406;2022-07-12T09:49:50;1.00;;;0.40;;
68315;SDS011;55508;54.368;18.406;2022-07-12T09:52:22;0.57;;;0.30;;
68315;SDS011;55508;54.368;18.406;2022-07-12T09:54:52;0.65;;;0.20;;
68315;SDS011;55508;54.368;18.406;2022-07-12T09:57:21;3.97;;;0.30;;
68315;SDS011;55508;54.368;18.406;2022-07-12T09:59:54;10.55;;;0.40;;
68315;SDS011;55508;54.368;18.406;2022-07-12T10:02:23;0.30;;;0.30;;
68315;SDS011;55508;54.368;18.406;2022-07-12T10:04:52;0.35;;;0.28;;
68315;SDS011;55508;54.368;18.406;2022-07-12T10:07:19;1.55;;;0.30;;
68315;SDS011;55508;54.368;18.406;2022-07-12T10:09:47;1.98;;;0.32;;
68315;SDS011;55508;54.368;18.406;2022-07-12T10:12:16;3.85;;;0.30;;
68315;SDS011;55508;54.368;18.406;2022-07-12T10:14:44;1.08;;;0.30;;
68315;SDS011;55508;54.368;18.406;2022-07-12T10:17:11;3.35;;;0.30;;
68315;SDS011;55508;54.368;18.406;2022-07-12T10:19:39;1.02;;;0.32;;
68315;SDS011;55508;54.368;18.406;2022-07-12T10:22:07;0.55;;;0.20;;
68315;SDS011;55508;54.368;18.406;2022-07-12T10:30:11;1.50;;;0.30;;
68315;SDS011;55508;54.368;18.406;2022-07-12T10:32:43;0.30;;;0.20;;
68315;SDS011;55508;54.368;18.406;2022-07-12T10:35:21;2.60;;;0.40;;
68315;SDS011;55508;54.368;18.406;2022-07-12T10:40:41;1.95;;;0.25;;
68315;SDS011;55508;54.368;18.406;2022-07-12T10:45:41;1.05;;;0.30;;
68315;SDS011;55508;54.368;18.406;2022-07-12T10:53:35;3.03;;;0.20;;
68315;SDS011;55508;54.368;18.406;2022-07-12T10:56:07;1.42;;;0.28;;
68315;SDS011;55508;54.368;18.406;2022-07-12T10:58:51;0.63;;;0.20;;
68315;SDS011;55508;54.368;18.406;2022-07-12T11:01:24;0.85;;;0.35;;
68315;SDS011;55508;54.368;18.406;2022-07-12T11:03:56;2.88;;;0.30;;
68315;SDS011;55508;54.368;18.406;2022-07-12T11:06:33;0.25;;;0.20;;
68315;SDS011;55508;54.368;18.406;2022-07-12T11:09:05;0.80;;;0.20;;
68315;SDS011;55508;54.368;18.406;2022-07-12T11:11:43;3.13;;;0.30;;
68315;SDS011;55508;54.368;18.406;2022-07-12T11:14:12;1.02;;;0.20;;
68315;SDS011;55508;54.368;18.406;2022-07-12T11:17:00;0.75;;;0.57;;
68315;SDS011;55508;54.368;18.406;2022-07-12T11:19:28;0.47;;;0.20;;
68315;SDS011;55508;54.368;18.406;2022-07-12T11:21:57;1.88;;;0.20;;
68315;SDS011;55508;54.368;18.406;2022-07-12T11:24:26;1.85;;;0.28;;
68315;SDS011;55508;54.368;18.406;2022-07-12T11:27:03;0.32;;;0.30;;
68315;SDS011;55508;54.368;18.406;2022-07-12T11:29:31;0.35;;;0.20;;
68315;SDS011;55508;54.368;18.406;2022-07-12T11:31:59;1.88;;;0.40;;
68315;SDS011;55508;54.368;18.406;2022-07-12T11:34:35;2.13;;;0.20;;
68315;SDS011;55508;54.368;18.406;2022-07-12T11:37:02;2.15;;;0.60;;
68315;SDS011;55508;54.368;18.406;2022-07-12T11:39:30;1.00;;;0.30;;
68315;SDS011;55508;54.368;18.406;2022-07-12T11:42:01;0.52;;;0.10;;
68315;SDS011;55508;54.368;18.406;2022-07-12T11:47:17;2.00;;;0.30;;
68315;SDS011;55508;54.368;18.406;2022-07-12T11:49:45;6.32;;;0.30;;
68315;SDS011;55508;54.368;18.406;2022-07-12T11:52:20;0.65;;;0.20;;
68315;SDS011;55508;54.368;18.406;2022-07-12T11:54:50;1.25;;;0.40;;
68315;SDS011;55508;54.368;18.406;2022-07-12T11:57:20;3.75;;;0.30;;
68315;SDS011;55508;54.368;18.406;2022-07-12T11:59:48;1.80;;;0.30;;
68315;SDS011;55508;54.368;18.406;2022-07-12T12:02:16;2.38;;;0.30;;
68315;SDS011;55508;54.368;18.406;2022-07-12T12:04:50;3.53;;;0.32;;
68315;SDS011;55508;54.368;18.406;2022-07-12T12:07:20;0.95;;;0.30;;
68315;SDS011;55508;54.368;18.406;2022-07-12T12:12:44;0.90;;;0.35;;
68315;SDS011;55508;54.368;18.406;2022-07-12T12:15:14;0.68;;;0.30;;
68315;SDS011;55508;54.368;18.406;2022-07-12T12:17:43;4.13;;;0.25;;
68315;SDS011;55508;54.368;18.406;2022-07-12T12:20:14;1.85;;;0.30;;
68315;SDS011;55508;54.368;18.406;2022-07-12T12:22:46;0.28;;;0.20;;
68315;SDS011;55508;54.368;18.406;2022-07-12T12:25:15;0.47;;;0.20;;
68315;SDS011;55508;54.368;18.406;2022-07-12T12:27:43;0.90;;;0.30;;
68315;SDS011;55508;54.368;18.406;2022-07-12T12:30:35;2.28;;;0.25;;
68315;SDS011;55508;54.368;18.406;2022-07-12T12:33:32;0.50;;;0.30;;
68315;SDS011;55508;54.368;18.406;2022-07-12T12:36:10;5.90;;;0.30;;
68315;SDS011;55508;54.368;18.406;2022-07-12T12:38:41;1.90;;;0.25;;
68315;SDS011;55508;54.368;18.406;2022-07-12T12:41:09;0.28;;;0.20;;
68315;SDS011;55508;54.368;18.406;2022-07-12T12:43:38;2.58;;;0.20;;
68315;SDS011;55508;54.368;18.406;2022-07-12T12:46:06;3.10;;;0.35;;
68315;SDS011;55508;54.368;18.406;2022-07-12T12:48:33;1.67;;;0.20;;
68315;SDS011;55508;54.368;18.406;2022-07-12T12:51:08;1.98;;;0.20;;
68315;SDS011;55508;54.368;18.406;2022-07-12T12:53:40;1.52;;;0.20;;
68315;SDS011;55508;54.368;18.406;2022-07-12T12:56:12;1.45;;;0.22;;
68315;SDS011;55508;54.368;18.406;2022-07-12T12:58:41;1.85;;;0.20;;
68315;SDS011;55508;54.368;18.406;2022-07-12T13:01:08;1.05;;;0.20;;
68315;SDS011;55508;54.368;18.406;2022-07-12T13:03:36;3.35;;;0.25;;
68315;SDS011;55508;54.368;18.406;2022-07-12T13:06:03;2.00;;;0.60;;
68315;SDS011;55508;54.368;18.406;2022-07-12T13:08:31;1.35;;;0.40;;
68315;SDS011;55508;54.368;18.406;2022-07-12T13:10:59;1.10;;;0.38;;
68315;SDS011;55508;54.368;18.406;2022-07-12T13:13:44;0.88;;;0.28;;
68315;SDS011;55508;54.368;18.406;2022-07-12T13:16:11;1.27;;;0.20;;
68315;SDS011;55508;54.368;18.406;2022-07-12T13:18:39;0.52;;;0.20;;
68315;SDS011;55508;54.368;18.406;2022-07-12T13:21:06;2.88;;;0.30;;
68315;SDS011;55508;54.368;18.406;2022-07-12T13:23:33;4.00;;;0.40;;
68315;SDS011;55508;54.368;18.406;2022-07-12T13:26:00;2.53;;;0.30;;
68315;SDS011;55508;54.368;18.406;2022-07-12T13:28:27;1.67;;;0.40;;
68315;SDS011;55508;54.368;18.406;2022-07-12T13:30:54;0.88;;;0.20;;
68315;SDS011;55508;54.368;18.406;2022-07-12T13:33:21;1.40;;;0.30;;
68315;SDS011;55508;54.368;18.406;2022-07-12T13:35:49;1.17;;;0.20;;
68315;SDS011;55508;54.368;18.406;2022-07-12T13:38:16;2.15;;;0.30;;
68315;SDS011;55508;54.368;18.406;2022-07-12T13:40:43;0.82;;;0.22;;
68315;SDS011;55508;54.368;18.406;2022-07-12T13:43:10;6.00;;;0.55;;
68315;SDS011;55508;54.368;18.406;2022-07-12T13:45:37;1.55;;;0.30;;
68315;SDS011;55508;54.368;18.406;2022-07-12T13:48:05;1.40;;;0.30;;
68315;SDS011;55508;54.368;18.406;2022-07-12T13:50:32;1.23;;;0.25;;
68315;SDS011;55508;54.368;18.406;2022-07-12T13:52:59;7.57;;;0.40;;
68315;SDS011;55508;54.368;18.406;2022-07-12T13:55:27;0.60;;;0.30;;
68315;SDS011;55508;54.368;18.406;2022-07-12T13:57:55;1.33;;;0.35;;
68315;SDS011;55508;54.368;18.406;2022-07-12T14:00:22;2.05;;;0.20;;
68315;SDS011;55508;54.368;18.406;2022-07-12T14:02:49;0.55;;;0.20;;
68315;SDS011;55508;54.368;18.406;2022-07-12T14:05:20;1.83;;;0.20;;
68315;SDS011;55508;54.368;18.406;2022-07-12T14:07:47;2.40;;;0.30;;
68315;SDS011;55508;54.368;18.406;2022-07-12T14:10:15;1.90;;;0.28;;
68315;SDS011;55508;54.368;18.406;2022-07-12T14:12:42;1.67;;;0.30;;
68315;SDS011;55508;54.368;18.406;2022-07-12T14:15:10;0.30;;;0.10;;
68315;SDS011;55508;54.368;18.406;2022-07-12T14:17:42;2.83;;;0.22;;
68315;SDS011;55508;54.368;18.406;2022-07-12T14:20:19;3.28;;;0.20;;
68315;SDS011;55508;54.368;18.406;2022-07-12T14:22:48;0.20;;;0.20;;
68315;SDS011;55508;54.368;18.406;2022-07-12T14:25:16;2.13;;;0.40;;
68315;SDS011;55508;54.368;18.406;2022-07-12T14:27:43;1.98;;;0.52;;
68315;SDS011;55508;54.368;18.406;2022-07-12T14:30:11;3.55;;;0.40;;
68315;SDS011;55508;54.368;18.406;2022-07-12T14:32:40;0.50;;;0.20;;
68315;SDS011;55508;54.368;18.406;2022-07-12T14:35:08;1.52;;;0.40;;
68315;SDS011;55508;54.368;18.406;2022-07-12T14:37:36;2.28;;;0.30;;
68315;SDS011;55508;54.368;18.406;2022-07-12T14:40:04;1.38;;;0.22;;
68315;SDS011;55508;54.368;18.406;2022-07-12T14:42:31;2.15;;;0.40;;
68315;SDS011;55508;54.368;18.406;2022-07-12T14:44:58;2.00;;;0.38;;
68315;SDS011;55508;54.368;18.406;2022-07-12T14:47:25;1.25;;;0.68;;
68315;SDS011;55508;54.368;18.406;2022-07-12T14:49:52;3.47;;;0.40;;
68315;SDS011;55508;54.368;18.406;2022-07-12T14:52:22;1.52;;;0.30;;
68315;SDS011;55508;54.368;18.406;2022-07-12T14:54:49;3.80;;;0.30;;
68315;SDS011;55508;54.368;18.406;2022-07-12T14:57:17;4.93;;;0.40;;
68315;SDS011;55508;54.368;18.406;2022-07-12T14:59:44;3.75;;;0.43;;
68315;SDS011;55508;54.368;18.406;2022-07-12T15:02:11;2.60;;;0.32;;
68315;SDS011;55508;54.368;18.406;2022-07-12T15:04:39;0.43;;;0.25;;
68315;SDS011;55508;54.368;18.406;2022-07-12T15:07:06;2.50;;;0.40;;
68315;SDS011;55508;54.368;18.406;2022-07-12T15:09:34;0.30;;;0.30;;